createdAt,value
2023-01-02T00:00:33.729Z,37.50
2023-01-02T00:03:00.802Z,45.40
2023-01-02T00:05:27.995Z,59.80
2023-01-02T00:07:55.208Z,46.20
2023-01-02T00:10:22.289Z,33.70
2023-01-02T00:12:49.259Z,35.90
2023-01-02T00:15:16.337Z,34.30
2023-01-02T00:17:43.303Z,36.50
2023-01-02T00:20:10.520Z,38.40
2023-01-02T00:22:37.578Z,35.40
2023-01-02T00:25:05.305Z,40.00
2023-01-02T00:27:32.450Z,39.90
2023-01-02T00:29:59.801Z,30.20
2023-01-02T00:32:26.999Z,32.10
2023-01-02T00:34:54.047Z,29.30
2023-01-02T00:37:21.704Z,30.10
2023-01-02T00:39:48.701Z,28.00
2023-01-02T00:42:15.616Z,29.50
2023-01-02T00:44:44.599Z,28.90
2023-01-02T00:47:11.958Z,22.30
2023-01-02T00:49:38.897Z,17.30
2023-01-02T00:52:07.614Z,19.50
2023-01-02T00:54:34.447Z,16.40
2023-01-02T00:57:01.328Z,21.20
2023-01-02T00:59:28.302Z,21.20
2023-01-02T01:01:55.373Z,25.80
2023-01-02T01:04:22.253Z,24.40
2023-01-02T01:06:50.563Z,27.20
2023-01-02T01:09:18.252Z,19.80
2023-01-02T01:11:45.367Z,19.70
2023-01-02T01:14:12.568Z,17.40
2023-01-02T01:16:40.284Z,25.70
2023-01-02T01:19:07.311Z,19.40
2023-01-02T01:21:34.207Z,15.00
2023-01-02T01:24:01.054Z,17.30
2023-01-02T01:26:27.929Z,23.50
2023-01-02T01:28:55.509Z,23.90
2023-01-02T01:31:22.846Z,27.70
2023-01-02T01:33:50.028Z,20.60
2023-01-02T01:36:19.475Z,19.10
2023-01-02T01:38:46.686Z,20.10
2023-01-02T01:41:17.312Z,22.10
2023-01-02T01:43:50.403Z,21.80
2023-01-02T01:46:38.676Z,17.20
2023-01-02T01:49:07.035Z,15.10
2023-01-02T01:51:35.651Z,11.50
2023-01-02T01:54:06.302Z,11.80
2023-01-02T01:56:35.713Z,11.40
2023-01-02T01:59:02.568Z,12.20
2023-01-02T02:01:29.904Z,10.20
2023-01-02T02:03:56.991Z,13.00
2023-01-02T02:06:24.363Z,12.40
2023-01-02T02:08:59.667Z,10.70
2023-01-02T02:11:26.794Z,12.10
2023-01-02T02:13:59.817Z,13.30
2023-01-02T02:16:29.012Z,14.40
2023-01-02T02:19:17.091Z,12.40
2023-01-02T02:21:56.288Z,13.10
2023-01-02T02:24:44.451Z,13.90
2023-01-02T02:27:36.336Z,12.60
2023-01-02T02:30:14.904Z,12.30
2023-01-02T02:32:57.373Z,12.30
2023-01-02T02:35:49.332Z,11.60
2023-01-02T02:38:50.492Z,11.80
2023-01-02T02:41:29.297Z,14.80
2023-01-02T02:44:33.198Z,12.00
2023-01-02T02:47:02.075Z,14.40
2023-01-02T02:49:48.899Z,15.40
2023-01-02T02:52:46.772Z,14.40
2023-01-02T02:55:30.086Z,17.90
2023-01-02T02:57:57.261Z,13.70
2023-01-02T03:00:24.425Z,17.50
2023-01-02T03:02:51.441Z,24.30
2023-01-02T03:05:37.957Z,21.90
2023-01-02T03:08:16.875Z,23.00
2023-01-02T03:10:56.838Z,30.40
2023-01-02T03:13:40.818Z,100.30
2023-01-02T03:16:13.171Z,43.00
2023-01-02T03:19:03.717Z,49.90
2023-01-02T03:21:33.343Z,35.00
2023-01-02T03:24:02.383Z,28.40
2023-01-02T03:26:30.922Z,27.90
2023-01-02T03:29:01.636Z,25.00
2023-01-02T03:31:28.682Z,27.80
2023-01-02T03:34:01.874Z,23.60
2023-01-02T03:36:29.757Z,25.10
2023-01-02T03:39:16.845Z,18.80
2023-01-02T03:41:46.573Z,19.70
2023-01-02T03:44:13.483Z,15.70
2023-01-02T03:46:59.309Z,8.20
2023-01-02T03:49:38.671Z,21.70
2023-01-02T03:52:05.543Z,20.30
2023-01-02T03:54:32.979Z,17.00
2023-01-02T03:57:09.149Z,15.60
2023-01-02T03:59:46.515Z,16.80
2023-01-02T04:02:17.134Z,55.70
2023-01-02T04:07:47.659Z,28.40
2023-01-02T04:10:15.145Z,32.80
2023-01-02T04:12:45.673Z,18.70
2023-01-02T04:15:13.248Z,22.40
2023-01-02T04:18:01.865Z,31.50
2023-01-02T04:20:31.397Z,18.70
2023-01-02T04:23:02.313Z,11.00
2023-01-02T04:25:32.088Z,8.20
2023-01-02T04:28:01.490Z,9.60
2023-01-02T04:30:29.725Z,11.10
2023-01-02T04:32:58.168Z,8.60
2023-01-02T04:35:24.989Z,10.60
2023-01-02T04:37:53.697Z,11.40
2023-01-02T04:40:38.983Z,19.90
2023-01-02T04:43:08.483Z,13.30
2023-01-02T04:45:35.393Z,15.30
2023-01-02T04:48:02.511Z,14.10
2023-01-02T04:50:29.635Z,18.40
2023-01-02T04:52:56.685Z,16.20
2023-01-02T04:55:23.675Z,19.20
2023-01-02T04:57:54.645Z,13.80
2023-01-02T05:00:21.693Z,17.60
2023-01-02T05:02:48.609Z,15.30
2023-01-02T05:05:15.597Z,15.70
2023-01-02T05:07:42.443Z,17.10
2023-01-02T05:10:10.601Z,17.40
2023-01-02T05:12:38.044Z,18.60
2023-01-02T05:15:06.997Z,13.30
2023-01-02T05:17:41.332Z,16.10
2023-01-02T05:20:10.792Z,20.60
2023-01-02T05:22:57.752Z,17.80
2023-01-02T05:25:25.606Z,16.10
2023-01-02T05:27:54.411Z,18.60
2023-01-02T05:30:21.992Z,20.60
2023-01-02T05:32:49.725Z,15.10
2023-01-02T05:35:16.818Z,23.90
2023-01-02T05:37:43.701Z,25.20
2023-01-02T05:40:11.526Z,30.20
2023-01-02T05:42:38.457Z,36.40
2023-01-02T05:45:05.895Z,69.70
2023-01-02T05:47:33.674Z,57.10
2023-01-02T05:50:00.835Z,39.90
2023-01-02T05:52:27.683Z,43.40
2023-01-02T05:54:55.030Z,40.00
2023-01-02T05:57:21.918Z,46.30
2023-01-02T05:59:48.812Z,50.10
2023-01-02T06:02:15.970Z,56.60
2023-01-02T06:04:42.926Z,55.50
2023-01-02T06:07:10.663Z,44.50
2023-01-02T06:09:37.563Z,37.60
2023-01-02T06:12:04.517Z,33.10
2023-01-02T06:14:31.637Z,40.90
2023-01-02T06:17:00.314Z,74.60
2023-01-02T06:19:27.905Z,44.70
2023-01-02T06:21:54.716Z,53.90
2023-01-02T06:24:21.638Z,43.60
2023-01-02T06:26:48.664Z,50.90
2023-01-02T06:29:15.845Z,51.40
2023-01-02T06:31:47.670Z,48.60
2023-01-02T06:34:17.952Z,51.20
2023-01-02T06:36:44.962Z,67.50
2023-01-02T06:39:12.850Z,60.70
2023-01-02T06:41:39.829Z,48.40
2023-01-02T06:44:06.819Z,44.00
2023-01-02T06:46:33.759Z,50.40
2023-01-02T06:49:00.960Z,57.60
2023-01-02T06:51:27.887Z,64.00
2023-01-02T06:53:55.739Z,66.60
2023-01-02T06:56:22.873Z,75.00
2023-01-02T06:58:49.892Z,56.80
2023-01-02T07:01:21.482Z,61.40
2023-01-02T07:03:48.769Z,87.40
2023-01-02T07:06:17.196Z,79.20
2023-01-02T07:08:44.319Z,75.20
2023-01-02T07:11:20.468Z,79.20
2023-01-02T07:13:48.031Z,98.00
2023-01-02T07:16:16.280Z,80.30
2023-01-02T07:18:43.780Z,72.50
2023-01-02T07:21:10.965Z,89.70
2023-01-02T07:23:37.847Z,88.10
2023-01-02T07:26:06.226Z,115.20
2023-01-02T07:28:33.676Z,70.10
2023-01-02T07:31:02.205Z,65.10
2023-01-02T07:33:29.572Z,52.40
2023-01-02T07:36:00.760Z,53.60
2023-01-02T07:38:27.766Z,51.70
2023-01-02T07:40:54.656Z,50.60
2023-01-02T07:43:21.562Z,58.50
2023-01-02T07:45:50.730Z,63.70
2023-01-02T07:48:18.741Z,67.80
2023-01-02T07:50:46.058Z,55.10
2023-01-02T07:53:13.246Z,50.20
2023-01-02T07:55:40.469Z,45.90
2023-01-02T07:58:07.677Z,60.50
2023-01-02T08:00:34.872Z,54.60
2023-01-02T08:03:01.783Z,49.80
2023-01-02T08:05:28.826Z,61.10
2023-01-02T08:07:57.015Z,35.30
2023-01-02T08:10:24.445Z,48.80
2023-01-02T08:12:52.315Z,43.90
2023-01-02T08:15:19.357Z,37.00
2023-01-02T08:17:46.547Z,37.40
2023-01-02T08:20:13.467Z,30.50
2023-01-02T08:22:40.283Z,31.60
2023-01-02T08:25:09.774Z,24.20
2023-01-02T08:27:37.136Z,23.30
2023-01-02T08:30:04.640Z,30.70
2023-01-02T08:32:35.893Z,32.80
2023-01-02T08:35:03.642Z,39.30
2023-01-02T08:37:30.613Z,38.70
2023-01-02T08:40:00.713Z,42.40
2023-01-02T08:42:27.672Z,49.10
2023-01-02T08:44:54.847Z,45.70
2023-01-02T08:47:23.193Z,47.50
2023-01-02T08:49:50.541Z,49.60
2023-01-02T08:52:17.400Z,47.50
2023-01-02T08:55:51.608Z,44.30
2023-01-02T08:58:18.999Z,35.30
2023-01-02T09:00:46.084Z,26.80
2023-01-02T09:03:13.079Z,28.60
2023-01-02T09:05:40.098Z,28.90
2023-01-02T09:08:07.860Z,32.90
2023-01-02T09:10:35.249Z,31.60
2023-01-02T09:13:03.744Z,27.30
2023-01-02T09:15:32.035Z,17.40
2023-01-02T09:17:59.498Z,14.50
2023-01-02T09:20:26.732Z,17.60
2023-01-02T09:22:53.683Z,16.00
2023-01-02T09:25:24.529Z,19.10
2023-01-02T09:27:52.116Z,20.30
2023-01-02T09:30:19.374Z,25.80
2023-01-02T09:32:49.262Z,17.10
2023-01-02T09:35:17.062Z,24.90
2023-01-02T09:37:44.503Z,21.60
2023-01-02T09:40:12.423Z,20.50
2023-01-02T09:42:39.863Z,23.70
2023-01-02T09:45:09.019Z,20.70
2023-01-02T09:47:36.239Z,16.00
2023-01-02T09:50:05.126Z,14.70
2023-01-02T09:52:36.802Z,12.80
2023-01-02T09:55:10.630Z,11.30
2023-01-02T09:58:10.564Z,13.10
2023-01-02T10:00:38.893Z,56.30
2023-01-02T10:03:21.705Z,21.90
2023-01-02T10:05:58.964Z,13.50
2023-01-02T10:08:36.518Z,12.20
2023-01-02T10:11:09.976Z,9.00
2023-01-02T10:16:45.105Z,69.10
2023-01-02T10:19:40.306Z,25.70
2023-01-02T10:22:09.182Z,14.10
2023-01-02T10:24:46.044Z,17.30
2023-01-02T10:27:17.216Z,15.20
2023-01-02T10:30:04.760Z,17.70
2023-01-02T10:32:33.021Z,13.30
2023-01-02T10:35:06.334Z,12.40
2023-01-02T10:37:33.949Z,13.70
2023-01-02T10:40:00.821Z,12.50
2023-01-02T10:42:27.637Z,14.60
2023-01-02T10:44:54.614Z,15.50
2023-01-02T10:47:38.308Z,15.10
2023-01-02T10:50:06.738Z,11.80
2023-01-02T10:52:35.530Z,14.10
2023-01-02T10:55:03.302Z,16.90
2023-01-02T10:57:33.195Z,18.10
2023-01-02T11:00:00.498Z,21.90
2023-01-02T11:02:32.424Z,25.20
2023-01-02T11:05:00.316Z,16.60
2023-01-02T11:07:27.233Z,36.00
2023-01-02T11:09:56.720Z,38.80
2023-01-02T11:12:27.280Z,27.00
2023-01-02T11:15:10.262Z,22.10
2023-01-02T11:17:44.165Z,234.10
2023-01-02T11:20:26.893Z,64.20
2023-01-02T11:22:55.213Z,27.40
2023-01-02T11:25:23.806Z,24.10
2023-01-02T11:27:51.538Z,14.60
2023-01-02T11:30:31.580Z,28.70
2023-01-02T11:33:22.584Z,15.60
2023-01-02T11:36:05.054Z,21.70
2023-01-02T11:38:48.412Z,11.30
2023-01-02T11:41:47.345Z,25.40
2023-01-02T11:44:26.783Z,81.60
2023-01-02T11:46:54.266Z,40.30
2023-01-02T11:49:23.633Z,36.20
2023-01-02T11:51:58.176Z,22.30
2023-01-02T11:54:40.083Z,48.60
2023-01-02T11:57:18.448Z,32.90
2023-01-02T11:59:48.048Z,18.30
2023-01-02T12:02:20.296Z,9.60
2023-01-02T12:04:50.705Z,12.60
2023-01-02T12:07:46.661Z,8.60
2023-01-02T12:10:17.151Z,10.50
2023-01-02T12:12:56.998Z,33.90
2023-01-02T12:15:42.728Z,24.20
2023-01-02T12:18:22.992Z,378.00
2023-01-02T12:20:54.418Z,154.90
2023-01-02T12:23:30.969Z,51.70
2023-01-02T12:26:25.172Z,40.90
2023-01-02T12:29:13.182Z,37.40
2023-01-02T12:32:06.842Z,50.50
2023-01-02T12:34:44.154Z,26.10
2023-01-02T12:37:17.240Z,18.90
2023-01-02T12:40:02.617Z,17.70
2023-01-02T12:43:03.541Z,15.80
2023-01-02T12:45:39.281Z,18.50
2023-01-02T12:48:19.907Z,26.40
2023-01-02T12:51:11.439Z,59.20
2023-01-02T12:54:19.512Z,43.30
2023-01-02T12:56:56.741Z,36.00
2023-01-02T12:59:35.573Z,25.20
2023-01-02T13:02:25.884Z,29.20
2023-01-02T13:04:56.762Z,18.10
2023-01-02T13:07:29.794Z,12.40
2023-01-02T13:09:56.670Z,20.10
2023-01-02T13:12:25.551Z,30.10
2023-01-02T13:14:54.162Z,25.60
2023-01-02T13:17:45.343Z,21.60
2023-01-02T13:20:50.958Z,22.60
2023-01-02T13:23:41.194Z,18.00
2023-01-02T13:26:09.359Z,27.10
2023-01-02T13:28:44.097Z,27.90
2023-01-02T13:31:44.642Z,23.40
2023-01-02T13:33:58.763Z,17.00
2023-01-02T13:36:39.676Z,18.10
2023-01-02T13:39:17.706Z,18.20
2023-01-02T13:42:21.797Z,14.60
2023-01-02T13:44:53.727Z,17.10
2023-01-02T13:47:25.574Z,17.50
2023-01-02T13:50:20.028Z,17.60
2023-01-02T13:53:09.995Z,18.50
2023-01-02T13:55:57.329Z,15.80
2023-01-02T13:58:25.695Z,16.00
2023-01-02T14:00:55.814Z,19.70
2023-01-02T14:03:23.461Z,19.60
2023-01-02T14:06:01.836Z,17.30
2023-01-02T14:08:30.839Z,20.60
2023-01-02T14:11:21.644Z,21.50
2023-01-02T14:13:51.209Z,22.70
2023-01-02T14:16:41.338Z,20.20
2023-01-02T14:19:14.028Z,27.70
2023-01-02T14:21:54.204Z,35.50
2023-01-02T14:24:41.293Z,43.50
2023-01-02T14:27:27.792Z,45.10
2023-01-02T14:30:08.877Z,36.50
2023-01-02T14:32:46.131Z,41.90
2023-01-02T14:35:12.990Z,35.40
2023-01-02T14:37:48.140Z,39.30
2023-01-02T14:40:21.347Z,35.40
2023-01-02T14:43:13.865Z,32.10
2023-01-02T14:45:44.940Z,32.20
2023-01-02T14:50:40.371Z,30.80
2023-01-02T14:53:19.146Z,44.80
2023-01-02T14:55:46.282Z,45.60
2023-01-02T14:58:21.879Z,89.50
2023-01-02T15:00:48.941Z,76.00
2023-01-02T15:03:23.842Z,137.30
2023-01-02T15:05:56.504Z,92.90
2023-01-02T15:08:31.848Z,124.00
2023-01-02T15:11:20.596Z,114.30
2023-01-02T15:14:04.498Z,65.40
2023-01-02T15:16:34.647Z,63.40
2023-01-02T15:19:02.180Z,49.00
2023-01-02T15:21:31.643Z,68.20
2023-01-02T15:24:00.163Z,64.10
2023-01-02T15:26:32.986Z,90.80
2023-01-02T15:29:03.650Z,92.10
2023-01-02T15:31:30.656Z,90.90
2023-01-02T15:34:00.371Z,76.10
2023-01-02T15:36:37.325Z,82.70
2023-01-02T15:39:06.964Z,70.60
2023-01-02T15:41:41.311Z,73.70
2023-01-02T15:44:29.062Z,62.50
2023-01-02T15:46:56.470Z,46.90
2023-01-02T15:49:23.774Z,62.70
2023-01-02T15:51:51.372Z,63.80
2023-01-02T15:54:18.753Z,84.60
2023-01-02T15:56:45.692Z,79.50
2023-01-02T15:59:28.901Z,89.00
2023-01-02T16:01:56.304Z,106.70
2023-01-02T16:04:25.051Z,127.90
2023-01-02T16:06:52.087Z,118.00
2023-01-02T16:09:24.200Z,80.00
2023-01-02T16:11:53.417Z,93.60
2023-01-02T16:14:38.973Z,106.40
2023-01-02T16:17:27.921Z,86.90
2023-01-02T16:19:58.784Z,69.30
2023-01-02T16:22:31.316Z,71.10
2023-01-02T16:25:13.273Z,77.80
2023-01-02T16:27:48.190Z,82.90
2023-01-02T16:30:38.186Z,85.00
2023-01-02T16:33:34.355Z,73.70
2023-01-02T16:36:04.269Z,93.70
2023-01-02T16:38:53.142Z,85.90
2023-01-02T16:41:34.084Z,90.10
2023-01-02T16:44:01.727Z,94.60
2023-01-02T16:46:28.928Z,87.50
2023-01-02T16:49:01.347Z,97.00
2023-01-02T16:51:32.367Z,91.40
2023-01-02T16:53:59.483Z,76.80
2023-01-02T16:56:26.522Z,81.50
2023-01-02T16:58:53.582Z,84.30
2023-01-02T17:01:20.839Z,87.00
2023-01-02T17:03:47.862Z,87.20
2023-01-02T17:06:15.966Z,91.90
2023-01-02T17:08:42.926Z,79.10
2023-01-02T17:11:15.187Z,87.50
2023-01-02T17:13:42.675Z,68.60
2023-01-02T17:16:09.797Z,76.50
2023-01-02T17:18:36.856Z,76.00
2023-01-02T17:21:03.901Z,88.30
2023-01-02T17:23:30.896Z,89.00
2023-01-02T17:25:57.905Z,89.90
2023-01-02T17:28:24.992Z,89.60
2023-01-02T17:30:52.131Z,82.60
2023-01-02T17:33:20.073Z,73.00
2023-01-02T17:35:47.732Z,72.00
2023-01-02T17:38:14.812Z,71.50
2023-01-02T17:40:42.478Z,72.90
2023-01-02T17:43:09.333Z,80.20
2023-01-02T17:45:36.201Z,72.70
2023-01-02T17:48:11.171Z,82.60
2023-01-02T17:50:38.985Z,80.20
2023-01-02T17:53:07.563Z,71.80
2023-01-02T17:55:34.902Z,75.40
2023-01-02T17:58:03.575Z,65.80
2023-01-02T18:00:30.598Z,67.60
2023-01-02T18:02:57.624Z,78.60
2023-01-02T18:05:24.505Z,84.50
2023-01-02T18:07:53.692Z,80.20
2023-01-02T18:10:21.463Z,65.90
2023-01-02T18:12:50.474Z,41.70
2023-01-02T18:15:20.304Z,45.00
2023-01-02T18:17:47.831Z,45.60
2023-01-02T18:20:20.433Z,47.60
2023-01-02T18:22:50.130Z,44.10
2023-01-02T18:25:24.443Z,44.70
2023-01-02T18:27:51.816Z,44.80
2023-01-02T18:30:23.839Z,35.10
2023-01-02T18:33:10.939Z,42.30
2023-01-02T18:35:56.597Z,96.00
2023-01-02T18:38:30.822Z,122.00
2023-01-02T18:40:57.840Z,87.50
2023-01-02T18:43:24.817Z,68.00
2023-01-02T18:45:54.738Z,48.10
2023-01-02T18:48:22.062Z,56.20
2023-01-02T18:51:00.132Z,40.70
2023-01-02T18:53:35.444Z,46.70
2023-01-02T18:56:11.363Z,38.90
2023-01-02T18:58:44.164Z,41.30
2023-01-02T19:01:24.888Z,44.30
2023-01-02T19:03:56.771Z,39.30
2023-01-02T19:06:25.903Z,41.90
2023-01-02T19:08:52.893Z,42.40
2023-01-02T19:11:49.829Z,46.60
2023-01-02T19:14:18.397Z,49.90
2023-01-02T19:16:45.325Z,46.40
2023-01-02T19:19:24.136Z,64.70
2023-01-02T19:21:51.324Z,50.90
2023-01-02T19:24:20.271Z,51.10
2023-01-02T19:26:48.969Z,53.10
2023-01-02T19:29:22.777Z,44.70
2023-01-02T19:32:02.287Z,70.90
2023-01-02T19:34:45.833Z,64.90
2023-01-02T19:37:12.954Z,79.60
2023-01-02T19:39:54.301Z,80.60
2023-01-02T19:44:55.545Z,106.70
2023-01-02T19:47:24.534Z,107.80
2023-01-02T19:49:51.664Z,134.30
2023-01-02T19:52:19.407Z,93.10
2023-01-02T19:54:46.437Z,91.60
2023-01-02T19:57:13.705Z,86.50
2023-01-02T19:59:45.448Z,96.60
2023-01-02T20:02:13.525Z,93.10
2023-01-02T20:04:42.616Z,79.70
2023-01-02T20:07:09.512Z,82.40
2023-01-02T20:09:36.880Z,101.80
2023-01-02T20:12:23.049Z,96.40
2023-01-02T20:14:49.979Z,97.10
2023-01-02T20:17:16.885Z,87.00
2023-01-02T20:19:43.733Z,93.60
2023-01-02T20:22:10.675Z,75.90
2023-01-02T20:24:39.858Z,90.00
2023-01-02T20:27:07.716Z,89.60
2023-01-02T20:29:34.571Z,80.80
2023-01-02T20:32:02.240Z,92.10
2023-01-02T20:34:29.817Z,71.50
2023-01-02T20:36:57.999Z,63.90
2023-01-02T20:39:27.441Z,49.10
2023-01-02T20:41:54.381Z,64.30
2023-01-02T20:44:21.246Z,69.80
2023-01-02T20:46:48.125Z,66.40
2023-01-02T20:49:15.269Z,71.20
2023-01-02T20:51:42.312Z,65.30
2023-01-02T20:54:10.061Z,66.70
2023-01-02T20:56:36.920Z,56.30
2023-01-02T20:59:03.867Z,58.70
2023-01-02T21:01:30.865Z,55.70
2023-01-02T21:03:58.946Z,54.40
2023-01-02T21:06:25.947Z,63.90
2023-01-02T21:08:53.591Z,121.70
2023-01-02T21:11:20.439Z,107.50
2023-01-02T21:13:47.391Z,54.20
2023-01-02T21:16:14.795Z,67.10
2023-01-02T21:18:42.798Z,73.70
2023-01-02T21:21:16.398Z,63.20
2023-01-02T21:23:43.541Z,60.40
2023-01-02T21:26:12.271Z,92.30
2023-01-02T21:28:39.168Z,111.20
2023-01-02T21:31:06.855Z,86.50
2023-01-02T21:33:33.757Z,72.80
2023-01-02T21:36:01.643Z,49.60
2023-01-02T21:38:29.635Z,45.10
2023-01-02T21:41:16.739Z,39.80
2023-01-02T21:43:44.627Z,44.80
2023-01-02T21:46:11.659Z,43.70
2023-01-02T21:48:39.630Z,32.60
2023-01-02T21:51:08.465Z,37.40
2023-01-02T21:53:36.748Z,31.80
2023-01-02T21:56:03.925Z,36.20
2023-01-02T21:58:31.417Z,43.30
2023-01-02T22:00:58.489Z,42.00
2023-01-02T22:03:25.539Z,39.60
2023-01-02T22:05:53.830Z,35.70
2023-01-02T22:08:21.202Z,41.00
2023-01-02T22:10:49.093Z,39.90
2023-01-02T22:13:16.408Z,35.80
2023-01-02T22:15:45.713Z,33.80
2023-01-02T22:18:25.672Z,32.10
2023-01-02T22:20:52.665Z,41.50
2023-01-02T22:23:20.193Z,37.60
2023-01-02T22:25:47.138Z,42.10
2023-01-02T22:28:13.948Z,83.50
2023-01-02T22:30:40.887Z,88.30
2023-01-02T22:33:07.774Z,61.70
2023-01-02T22:35:35.059Z,63.00
2023-01-02T22:38:02.063Z,97.50
2023-01-02T22:40:29.261Z,78.60
2023-01-02T22:43:05.427Z,70.20
2023-01-02T22:45:35.982Z,54.30
2023-01-02T22:48:05.909Z,49.50
2023-01-02T22:50:40.293Z,50.20
2023-01-02T22:53:11.627Z,66.90
2023-01-02T22:55:38.525Z,51.90
2023-01-02T22:58:06.894Z,42.90
2023-01-02T23:00:34.776Z,43.80
2023-01-02T23:03:01.800Z,41.40
2023-01-02T23:05:28.747Z,42.30
2023-01-02T23:07:55.759Z,37.00
2023-01-02T23:10:22.823Z,48.80
2023-01-02T23:12:50.045Z,41.60
2023-01-02T23:15:17.080Z,26.10
2023-01-02T23:18:03.854Z,26.20
2023-01-02T23:20:30.835Z,44.50
2023-01-02T23:22:57.663Z,47.10
2023-01-02T23:25:24.587Z,52.90
2023-01-02T23:27:51.740Z,39.90
2023-01-02T23:30:19.365Z,37.70
2023-01-02T23:32:46.380Z,22.50
2023-01-02T23:35:13.283Z,26.10
2023-01-02T23:37:43.232Z,24.80
2023-01-02T23:40:10.862Z,28.60
2023-01-02T23:42:37.900Z,43.20
2023-01-02T23:45:07.861Z,34.40
2023-01-02T23:47:34.965Z,42.30
2023-01-02T23:50:01.922Z,30.70
2023-01-02T23:52:28.934Z,24.70
2023-01-02T23:54:55.766Z,24.20
2023-01-02T23:57:22.881Z,43.10
2023-01-02T23:59:50.247Z,48.30
